Terminal Aerodrome Forecast
Issued by NWS Sioux Falls, SD

Home | Current Version | Previous Version | Text Only | Print | Product List | Glossary Off
Versions: 1 2 3 4 5 6 7 8 9 10 11 12 13 14 15

000
FTUS43 KFSD 180500
TAFFSD
TAF
KFSD 180522Z 1806/1906 11012KT P6SM SCT080 BKN120
     FM181000 11013KT P6SM OVC090
     FM181500 15016G23KT P6SM BKN080
     FM181800 17023G32KT P6SM SCT200
     FM190100 17015G24KT P6SM SCT250=

USA.gov is the U.S. government's official web portal to all federal, state and local government web resources and services.